Time;durP1;ratioP1;P1;durP2;ratioP2;P2;SDS_P1;SDS_P2;PMS_P1;PMS_P2;Temp;Humidity;BMP_temperature;BMP_pressure;BME280_temperature;BME280_humidity;BME280_pressure;Samples;Min_cycle;Max_cycle;Signal;HPM_P1;HPM_P2
2021/03/08 00:01:48;;;;;;;20.90;14.70;;;0.80;99.90;;;;;;5012593;28;20022;-69
2021/03/08 00:04:14;;;;;;;20.40;15.70;;;0.80;99.90;;;;;;5013003;28;20029;-69
2021/03/08 00:06:39;;;;;;;18.20;14.98;;;0.80;99.90;;;;;;5012711;28;20441;-69
2021/03/08 00:09:05;;;;;;;22.85;16.45;;;0.80;99.90;;;;;;5012860;28;20034;-68
2021/03/08 00:11:31;;;;;;;23.48;18.20;;;0.80;99.90;;;;;;5012774;28;20105;-69
2021/03/08 00:13:56;;;;;;;30.17;19.45;;;0.70;99.90;;;;;;5013022;28;20114;-69
2021/03/08 00:16:22;;;;;;;33.83;20.48;;;0.70;99.90;;;;;;5011615;28;20141;-69
2021/03/08 00:18:47;;;;;;;32.53;20.48;;;0.70;99.90;;;;;;5012254;28;20026;-70
2021/03/08 00:21:13;;;;;;;34.03;21.33;;;0.60;99.90;;;;;;5012512;28;20026;-69
2021/03/08 00:23:39;;;;;;;41.42;23.05;;;0.60;99.90;;;;;;5011154;28;20057;-69
2021/03/08 00:26:04;;;;;;;30.80;19.45;;;0.50;99.90;;;;;;5012381;28;20034;-69
2021/03/08 00:28:30;;;;;;;29.02;19.58;;;0.40;99.90;;;;;;5013565;28;20097;-70
2021/03/08 00:30:55;;;;;;;31.55;19.55;;;0.50;99.90;;;;;;5013453;28;20053;-69
2021/03/08 00:33:21;;;;;;;34.22;20.60;;;0.40;99.90;;;;;;5013750;28;20538;-69
2021/03/08 00:35:46;;;;;;;29.98;17.73;;;0.50;99.90;;;;;;5014650;28;20029;-70
2021/03/08 00:38:12;;;;;;;22.00;15.48;;;0.40;99.90;;;;;;5017115;28;20022;-69
2021/03/08 00:40:37;;;;;;;18.10;15.10;;;0.50;99.90;;;;;;5016638;28;20030;-69
2021/03/08 00:43:03;;;;;;;19.45;14.45;;;0.50;99.90;;;;;;5016683;28;20144;-69
2021/03/08 00:45:29;;;;;;;18.25;14.07;;;0.40;99.90;;;;;;5017843;28;20037;-70
2021/03/08 00:47:54;;;;;;;18.73;14.18;;;0.40;99.90;;;;;;5016152;28;20049;-70
2021/03/08 00:50:23;;;;;;;20.92;15.60;;;0.40;99.90;;;;;;5016821;28;20877;-69
2021/03/08 00:52:49;;;;;;;20.95;14.20;;;0.30;99.90;;;;;;5016876;28;20080;-68
2021/03/08 00:55:15;;;;;;;19.83;14.77;;;0.30;99.90;;;;;;5016816;28;20037;-68
2021/03/08 00:57:41;;;;;;;18.95;15.25;;;0.30;99.90;;;;;;5017370;28;20084;-69
2021/03/08 01:00:10;;;;;;;19.35;14.23;;;0.30;99.90;;;;;;5016395;28;20441;-69
2021/03/08 01:02:36;;;;;;;20.27;14.43;;;0.20;99.90;;;;;;5016029;28;20022;-68
2021/03/08 01:05:03;;;;;;;19.73;14.80;;;0.30;99.90;;;;;;5016017;28;20026;-69
2021/03/08 01:07:29;;;;;;;19.45;15.05;;;0.20;99.90;;;;;;5016791;28;20068;-70
2021/03/08 01:09:54;;;;;;;17.85;13.82;;;0.10;99.90;;;;;;5016515;28;20360;-68
2021/03/08 01:12:20;;;;;;;19.48;14.00;;;0.10;99.90;;;;;;5016185;28;20062;-70
2021/03/08 01:14:45;;;;;;;20.42;14.32;;;0.10;99.90;;;;;;5016852;28;20026;-70
2021/03/08 01:17:12;;;;;;;21.55;14.70;;;0.00;99.90;;;;;;5016473;28;20022;-69
2021/03/08 01:19:38;;;;;;;23.58;14.63;;;0.10;99.90;;;;;;5014637;28;20125;-70
2021/03/08 01:22:03;;;;;;;19.48;14.90;;;0.00;99.90;;;;;;5016060;28;20037;-69
2021/03/08 01:24:29;;;;;;;21.75;14.70;;;0.00;99.90;;;;;;5016464;28;20018;-69
2021/03/08 01:26:54;;;;;;;23.13;15.50;;;0.00;99.90;;;;;;5019887;28;20041;-70
2021/03/08 01:29:20;;;;;;;19.92;15.35;;;-0.10;99.90;;;;;;5023416;28;20034;-69
2021/03/08 01:31:46;;;;;;;19.38;14.07;;;-0.10;99.90;;;;;;5028921;28;20086;-70
2021/03/08 01:34:11;;;;;;;19.90;13.93;;;0.00;99.90;;;;;;5021739;28;20129;-69
2021/03/08 01:36:37;;;;;;;20.60;14.27;;;0.00;99.90;;;;;;5021799;28;20069;-69
2021/03/08 01:39:04;;;;;;;18.90;14.60;;;0.00;99.90;;;;;;5028959;28;20391;-68
2021/03/08 01:41:30;;;;;;;23.23;15.40;;;-0.10;99.90;;;;;;5028050;28;20018;-68
2021/03/08 01:43:56;;;;;;;17.92;13.05;;;0.00;99.90;;;;;;5025422;28;20040;-69
2021/03/08 01:46:22;;;;;;;19.42;15.40;;;0.00;99.90;;;;;;5026351;28;20030;-69
2021/03/08 01:48:47;;;;;;;21.08;14.85;;;0.00;99.90;;;;;;5015306;28;20052;-69
2021/03/08 01:51:13;;;;;;;21.02;14.75;;;0.00;99.90;;;;;;5016555;28;20058;-68
2021/03/08 01:53:38;;;;;;;16.83;13.50;;;0.00;99.90;;;;;;5016217;28;20026;-69
2021/03/08 01:56:05;;;;;;;16.50;12.93;;;0.20;99.90;;;;;;5015133;28;20034;-69
2021/03/08 01:58:31;;;;;;;16.80;13.30;;;0.50;68.50;;;;;;5021838;28;20429;-70
2021/03/08 02:00:57;;;;;;;17.35;14.70;;;0.50;64.30;;;;;;5024613;28;20037;-69
2021/03/08 02:03:23;;;;;;;16.05;13.02;;;0.50;50.00;;;;;;5024732;28;20053;-70
2021/03/08 02:05:49;;;;;;;16.95;13.90;;;0.60;48.80;;;;;;5027472;28;20058;-70
2021/03/08 02:08:18;;;;;;;18.65;13.65;;;0.60;41.80;;;;;;5024850;28;20018;-71
2021/03/08 02:10:45;;;;;;;20.75;13.98;;;0.70;37.30;;;;;;5022075;28;20413;-70
2021/03/08 02:13:32;;;;;;;16.35;13.30;;;0.60;37.20;;;;;;5023661;28;20026;-69
2021/03/08 02:16:33;;;;;;;18.23;13.88;;;0.50;58.70;;;;;;5018530;28;20576;-70
2021/03/08 02:19:06;;;;;;;19.27;14.15;;;0.40;57.60;;;;;;4997099;28;20090;-69
2021/03/08 02:21:58;;;;;;;21.65;14.48;;;0.30;94.70;;;;;;5016307;28;20100;-69
2021/03/08 02:24:26;;;;;;;16.75;13.93;;;0.20;97.00;;;;;;5017316;28;20393;-69
2021/03/08 02:27:15;;;;;;;18.85;13.73;;;0.10;99.90;;;;;;5016854;28;20112;-69
2021/03/08 02:29:50;;;;;;;16.75;13.65;;;0.00;99.90;;;;;;5015659;28;20022;-70
2021/03/08 02:32:20;;;;;;;18.05;14.27;;;0.00;99.90;;;;;;5013364;28;20564;-69
2021/03/08 02:34:55;;;;;;;19.70;15.97;;;0.00;99.90;;;;;;5014498;28;20045;-69
2021/03/08 02:37:26;;;;;;;19.00;13.70;;;0.00;99.90;;;;;;5013870;28;20195;-70
2021/03/08 02:39:58;;;;;;;19.23;13.88;;;0.10;99.90;;;;;;5013842;28;20034;-69
2021/03/08 02:42:29;;;;;;;21.85;13.98;;;0.10;99.90;;;;;;5013896;28;20026;-69
2021/03/08 02:44:59;;;;;;;20.30;13.90;;;-0.10;99.90;;;;;;5013975;28;20025;-70
2021/03/08 02:47:27;;;;;;;22.70;16.07;;;-0.20;99.90;;;;;;5013678;28;20056;-69
2021/03/08 02:49:55;;;;;;;17.75;14.63;;;-0.20;99.90;;;;;;5012152;28;20264;-69
2021/03/08 02:52:25;;;;;;;22.10;14.68;;;-0.20;99.90;;;;;;5013674;28;20025;-69
2021/03/08 02:54:56;;;;;;;19.15;14.85;;;-0.40;99.90;;;;;;5013739;28;20494;-69
2021/03/08 02:57:25;;;;;;;19.52;14.80;;;-0.40;99.90;;;;;;5013811;28;20053;-68
2021/03/08 02:59:53;;;;;;;19.88;14.57;;;-0.40;99.90;;;;;;5013329;28;20104;-69
2021/03/08 03:02:20;;;;;;;19.33;14.93;;;-0.40;99.90;;;;;;5013238;28;20029;-69
2021/03/08 03:04:47;;;;;;;19.80;14.73;;;-0.40;99.90;;;;;;5013377;28;20076;-69
2021/03/08 03:07:15;;;;;;;19.23;14.63;;;-0.30;99.90;;;;;;5013482;28;20419;-69
2021/03/08 03:09:42;;;;;;;19.83;13.95;;;-0.30;99.90;;;;;;5012371;28;20040;-70
2021/03/08 03:12:10;;;;;;;18.83;14.48;;;-0.40;99.90;;;;;;5014099;28;20490;-69
2021/03/08 03:14:36;;;;;;;20.00;15.30;;;-0.30;99.90;;;;;;5020539;28;20028;-69
2021/03/08 03:17:07;;;;;;;22.58;16.30;;;-0.30;99.90;;;;;;5003427;28;20088;-70
2021/03/08 03:19:36;;;;;;;23.95;16.83;;;-0.40;99.90;;;;;;5019998;28;20052;-69
2021/03/08 03:22:04;;;;;;;23.83;16.98;;;-0.40;99.90;;;;;;5013854;28;20034;-69
2021/03/08 03:24:31;;;;;;;20.75;16.13;;;-0.50;99.90;;;;;;5013520;28;20046;-69
2021/03/08 03:26:59;;;;;;;23.80;18.02;;;-0.50;99.90;;;;;;5013553;28;20301;-69
2021/03/08 03:29:26;;;;;;;27.20;18.33;;;-0.50;99.90;;;;;;5013433;28;20622;-68
2021/03/08 03:31:51;;;;;;;24.83;17.02;;;-0.50;99.90;;;;;;5013306;28;20026;-68
2021/03/08 03:34:19;;;;;;;20.42;15.18;;;-0.50;99.90;;;;;;5011756;28;20087;-69
2021/03/08 03:36:48;;;;;;;21.40;14.52;;;-0.50;99.90;;;;;;5013300;28;20030;-68
2021/03/08 03:39:15;;;;;;;18.35;15.90;;;-0.50;99.90;;;;;;5013797;28;20026;-69
2021/03/08 03:41:40;;;;;;;17.73;14.38;;;-0.50;99.90;;;;;;5013524;28;20022;-68
2021/03/08 03:44:09;;;;;;;21.60;16.15;;;-0.50;99.90;;;;;;5013597;28;20547;-70
2021/03/08 03:46:40;;;;;;;22.35;15.32;;;-0.50;99.90;;;;;;5013151;28;20030;-68
2021/03/08 03:49:06;;;;;;;20.80;15.32;;;-0.40;99.90;;;;;;5013170;28;20029;-69
2021/03/08 03:51:31;;;;;;;21.27;15.05;;;-0.40;99.90;;;;;;5013272;28;20049;-69
2021/03/08 03:53:57;;;;;;;19.30;15.05;;;-0.40;99.90;;;;;;5013395;28;20496;-69
2021/03/08 03:56:25;;;;;;;20.67;15.98;;;-0.40;99.90;;;;;;5013189;28;20037;-69
2021/03/08 03:59:01;;;;;;;20.38;15.48;;;-0.40;99.90;;;;;;5013480;28;20061;-69
2021/03/08 04:01:36;;;;;;;21.40;16.65;;;-0.50;99.90;;;;;;5012899;28;20024;-69
2021/03/08 04:04:29;;;;;;;16.92;14.80;;;-0.50;99.90;;;;;;5014566;28;20022;-69
2021/03/08 04:06:56;;;;;;;20.40;15.45;;;-0.60;99.90;;;;;;5016681;28;20030;-69
2021/03/08 04:09:23;;;;;;;19.65;15.52;;;-0.60;99.90;;;;;;5018617;28;20022;-69
2021/03/08 04:11:52;;;;;;;21.70;15.73;;;-0.60;99.90;;;;;;5023698;28;20076;-68
2021/03/08 04:14:21;;;;;;;22.80;15.88;;;-0.70;99.90;;;;;;5021835;28;20052;-69
2021/03/08 04:16:49;;;;;;;21.05;16.00;;;-0.70;99.90;;;;;;5021480;28;20117;-69
2021/03/08 04:19:18;;;;;;;20.38;15.07;;;-0.80;99.90;;;;;;5020061;28;20026;-69
2021/03/08 04:21:44;;;;;;;22.58;16.05;;;-0.70;99.90;;;;;;5000239;28;20044;-69
2021/03/08 04:24:12;;;;;;;22.65;16.20;;;-0.80;99.90;;;;;;5017491;28;20470;-68
2021/03/08 04:26:39;;;;;;;22.40;16.88;;;-0.80;99.90;;;;;;5019122;28;20433;-69
2021/03/08 04:29:06;;;;;;;21.10;16.85;;;-0.80;99.90;;;;;;5021832;28;20034;-69
2021/03/08 04:31:33;;;;;;;22.30;16.20;;;-0.80;99.90;;;;;;5026314;28;20026;-69
2021/03/08 04:34:03;;;;;;;24.77;15.68;;;-0.90;99.90;;;;;;5024462;28;20072;-69
2021/03/08 04:36:30;;;;;;;17.95;15.18;;;-0.90;99.90;;;;;;5023702;28;20093;-69
2021/03/08 04:38:56;;;;;;;20.70;15.55;;;-0.90;99.90;;;;;;5023733;28;20035;-69
2021/03/08 04:41:26;;;;;;;20.60;15.25;;;-0.90;99.90;;;;;;5025767;28;20026;-69
2021/03/08 04:43:53;;;;;;;20.75;16.05;;;-0.80;99.90;;;;;;5024150;28;20066;-69
2021/03/08 04:46:19;;;;;;;18.88;15.18;;;-0.90;99.90;;;;;;5014709;28;20102;-68
2021/03/08 04:48:45;;;;;;;19.77;15.43;;;-0.80;99.90;;;;;;5015536;28;20092;-68
2021/03/08 04:51:11;;;;;;;18.75;14.18;;;-0.70;99.90;;;;;;5015983;28;20021;-69
2021/03/08 04:53:37;;;;;;;21.48;15.73;;;-0.80;99.90;;;;;;5016142;28;20101;-69
2021/03/08 04:56:04;;;;;;;19.15;15.05;;;-0.70;99.90;;;;;;5016363;28;20025;-70
2021/03/08 04:58:30;;;;;;;20.88;14.77;;;-0.70;99.90;;;;;;5014402;28;20459;-67
2021/03/08 05:00:56;;;;;;;22.60;16.67;;;-0.70;99.90;;;;;;5016121;28;20026;-70
2021/03/08 05:03:25;;;;;;;19.55;15.30;;;-0.70;99.90;;;;;;5015869;28;20104;-70
2021/03/08 05:05:51;;;;;;;20.80;16.00;;;-0.80;99.90;;;;;;5016151;28;20032;-69
2021/03/08 05:08:18;;;;;;;21.38;16.08;;;-0.90;99.90;;;;;;5016065;28;20018;-68
2021/03/08 05:10:44;;;;;;;20.95;15.32;;;-0.80;99.90;;;;;;5015695;28;20133;-69
2021/03/08 05:13:12;;;;;;;18.15;15.50;;;-0.80;99.90;;;;;;5016467;28;20030;-69
2021/03/08 05:15:38;;;;;;;21.52;15.75;;;-0.80;99.90;;;;;;5015929;28;20398;-68
2021/03/08 05:18:05;;;;;;;21.02;15.90;;;-0.90;99.90;;;;;;5015446;28;20036;-68
2021/03/08 05:20:32;;;;;;;19.63;15.73;;;-0.90;99.90;;;;;;5015203;28;20053;-68
2021/03/08 05:23:02;;;;;;;23.63;16.55;;;-0.90;99.90;;;;;;5013217;28;20029;-70
2021/03/08 05:25:29;;;;;;;21.55;16.60;;;-1.00;99.90;;;;;;5015652;28;20420;-69
2021/03/08 05:27:55;;;;;;;22.50;16.17;;;-1.00;99.90;;;;;;5016322;28;20042;-69
2021/03/08 05:30:22;;;;;;;23.77;17.23;;;-1.10;99.90;;;;;;5015117;28;20029;-69
2021/03/08 05:33:17;;;;;;;26.98;16.80;;;-1.10;99.90;;;;;;5015151;28;20022;-69
2021/03/08 05:35:44;;;;;;;22.63;15.77;;;-1.10;99.90;;;;;;5015309;28;20030;-69
2021/03/08 05:38:10;;;;;;;19.80;16.10;;;-1.10;99.90;;;;;;5014976;28;20044;-69
2021/03/08 05:40:45;;;;;;;21.58;18.25;;;-1.10;99.90;;;;;;5014821;28;20030;-68
2021/03/08 05:43:17;;;;;;;22.38;15.60;;;-1.20;99.90;;;;;;5014958;28;20050;-69
2021/03/08 05:46:21;;;;;;;25.27;16.75;;;-1.10;99.90;;;;;;5015016;28;20478;-69
2021/03/08 05:49:15;;;;;;;23.35;17.70;;;-0.80;99.90;;;;;;4973485;28;20062;-69
2021/03/08 05:51:52;;;;;;;24.52;15.88;;;-0.80;99.90;;;;;;4973487;28;20026;-70
2021/03/08 05:54:38;;;;;;;25.02;16.48;;;-1.00;99.90;;;;;;5003225;28;20041;-69
2021/03/08 05:57:16;;;;;;;25.83;15.82;;;-1.00;99.90;;;;;;5014520;28;20478;-69
2021/03/08 06:00:02;;;;;;;20.92;16.27;;;-1.00;99.90;;;;;;5014779;28;20489;-70
2021/03/08 06:02:54;;;;;;;27.02;16.73;;;-1.00;99.90;;;;;;5014580;28;20044;-69
2021/03/08 06:05:23;;;;;;;30.75;16.38;;;-1.00;99.90;;;;;;5014942;28;20105;-69
2021/03/08 06:08:26;;;;;;;27.85;17.88;;;-1.00;99.90;;;;;;5014757;28;20026;-70
2021/03/08 06:11:10;;;;;;;24.67;16.65;;;-0.90;99.90;;;;;;5014547;28;20056;-69
2021/03/08 06:13:53;;;;;;;26.40;19.08;;;-0.90;99.90;;;;;;5014336;28;20040;-69
2021/03/08 06:16:45;;;;;;;25.85;17.25;;;-0.80;99.90;;;;;;5021123;28;20022;-69
2021/03/08 06:19:14;;;;;;;26.63;17.20;;;-0.80;99.90;;;;;;5013971;28;20034;-69
2021/03/08 06:21:40;;;;;;;30.52;17.08;;;-0.80;99.90;;;;;;5014568;28;20026;-69
2021/03/08 06:24:06;;;;;;;25.17;16.27;;;-0.70;99.90;;;;;;5016460;28;20434;-69
2021/03/08 06:26:33;;;;;;;27.45;17.02;;;-0.70;99.90;;;;;;5015346;28;20021;-69
2021/03/08 06:28:59;;;;;;;30.77;18.13;;;-0.60;99.90;;;;;;5013470;28;20030;-70
2021/03/08 06:31:28;;;;;;;26.45;17.00;;;-0.50;99.90;;;;;;5014696;28;20482;-69
2021/03/08 06:33:55;;;;;;;28.55;17.00;;;-0.50;99.90;;;;;;5014583;28;20029;-70
2021/03/08 06:36:22;;;;;;;32.30;14.93;;;-0.40;99.90;;;;;;5013808;28;20030;-69
2021/03/08 06:38:48;;;;;;;34.10;17.10;;;-0.30;99.90;;;;;;5014210;28;20021;-70
2021/03/08 06:41:14;;;;;;;34.85;17.02;;;0.10;99.90;;;;;;5014367;28;20041;-70
2021/03/08 06:43:40;;;;;;;34.00;17.67;;;0.10;99.90;;;;;;5014821;28;20478;-69
2021/03/08 06:46:06;;;;;;;32.72;16.25;;;0.20;99.90;;;;;;5014097;28;20390;-68
2021/03/08 06:48:32;;;;;;;27.13;16.45;;;0.20;99.90;;;;;;5014290;28;20052;-69
2021/03/08 06:51:15;;;;;;;32.00;16.92;;;0.20;99.90;;;;;;5012813;28;20486;-69
2021/03/08 06:53:43;;;;;;;30.83;15.23;;;0.40;99.90;;;;;;5012652;28;20037;-69
2021/03/08 06:56:16;;;;;;;30.50;18.40;;;0.40;99.90;;;;;;5012578;28;20038;-69
2021/03/08 06:58:42;;;;;;;22.55;17.60;;;0.30;99.90;;;;;;5013927;28;20517;-69
2021/03/08 07:01:16;;;;;;;23.38;16.92;;;0.30;99.90;;;;;;5015776;28;20022;-69
2021/03/08 07:03:42;;;;;;;23.90;17.77;;;0.50;99.90;;;;;;5014179;28;20080;-69
2021/03/08 07:06:17;;;;;;;22.17;16.75;;;0.60;99.90;;;;;;5014314;28;20556;-69
2021/03/08 07:08:47;;;;;;;26.48;18.58;;;0.80;99.90;;;;;;5013058;28;20040;-68
2021/03/08 07:11:25;;;;;;;26.77;18.08;;;0.90;99.90;;;;;;5015219;28;20017;-69
2021/03/08 07:13:51;;;;;;;29.20;18.40;;;0.90;99.90;;;;;;5013767;28;20053;-68
2021/03/08 07:16:17;;;;;;;27.63;17.60;;;1.00;99.90;;;;;;5013945;28;20166;-69
2021/03/08 07:18:43;;;;;;;24.63;16.65;;;1.10;99.90;;;;;;5013720;28;20028;-70
2021/03/08 07:21:12;;;;;;;28.20;17.90;;;0.90;99.90;;;;;;5014168;28;20018;-70
2021/03/08 07:23:38;;;;;;;25.08;16.58;;;0.90;99.90;;;;;;5013634;28;20500;-69
2021/03/08 07:26:13;;;;;;;25.92;16.38;;;1.10;99.90;;;;;;5013534;28;20077;-70
2021/03/08 07:28:38;;;;;;;26.05;17.77;;;1.30;99.90;;;;;;5013709;28;20096;-70
2021/03/08 07:31:05;;;;;;;25.50;17.88;;;1.40;92.10;;;;;;5012518;28;20481;-70
2021/03/08 07:33:31;;;;;;;23.60;15.82;;;1.40;94.10;;;;;;5014413;28;20082;-69
2021/03/08 07:35:57;;;;;;;28.83;16.13;;;1.40;49.40;;;;;;5033348;28;20045;-69
2021/03/08 07:38:31;;;;;;;20.50;16.20;;;1.40;14.50;;;;;;5034253;28;20035;-69
2021/03/08 07:41:18;;;;;;;19.42;15.27;;;1.10;56.70;;;;;;5034959;28;20041;-70
2021/03/08 07:43:46;;;;;;;24.15;15.88;;;1.30;44.70;;;;;;5034518;28;20116;-70
2021/03/08 07:46:32;;;;;;;26.67;16.35;;;1.50;1.00;;;;;;5032947;28;20026;-69
2021/03/08 07:48:59;;;;;;;18.52;16.58;;;1.50;4.40;;;;;;5031662;28;20026;-69
2021/03/08 07:51:25;;;;;;;18.02;16.08;;;1.40;26.80;;;;;;5032889;28;20034;-69
2021/03/08 07:54:02;;;;;;;28.45;15.73;;;1.30;37.40;;;;;;5034036;28;20017;-69
2021/03/08 07:56:28;;;;;;;21.17;16.00;;;1.50;14.90;;;;;;5032855;28;20057;-69
2021/03/08 07:58:54;;;;;;;20.00;15.75;;;1.60;1.00;;;;;;5032344;28;20033;-69
2021/03/08 08:01:21;;;;;;;17.48;14.63;;;1.70;1.00;;;;;;5033551;28;20014;-69
2021/03/08 08:03:48;;;;;;;24.88;16.35;;;1.70;1.00;;;;;;5034286;28;20105;-69
2021/03/08 08:06:19;;;;;;;18.35;15.85;;;1.80;1.00;;;;;;5033967;28;20041;-69
2021/03/08 08:08:55;;;;;;;18.73;15.25;;;1.50;15.20;;;;;;5029743;28;20022;-69
2021/03/08 08:11:25;;;;;;;20.85;16.30;;;1.30;36.40;;;;;;5030673;28;20106;-70
2021/03/08 08:13:57;;;;;;;22.37;15.47;;;1.30;42.50;;;;;;5024727;28;20179;-70
2021/03/08 08:16:34;;;;;;;24.05;16.00;;;1.30;53.50;;;;;;5019886;28;20022;-70
2021/03/08 08:19:06;;;;;;;17.50;14.98;;;1.30;45.70;;;;;;5018179;28;20030;-70
2021/03/08 08:21:37;;;;;;;20.85;16.05;;;1.50;36.20;;;;;;5028205;28;20022;-69
2021/03/08 08:24:05;;;;;;;21.02;15.05;;;1.80;1.00;;;;;;5026076;28;20018;-69
2021/03/08 08:26:32;;;;;;;19.10;15.50;;;1.90;1.00;;;;;;5026121;28;20109;-70
2021/03/08 08:28:58;;;;;;;19.40;15.27;;;2.10;1.00;;;;;;5027372;28;20021;-69
2021/03/08 08:31:24;;;;;;;20.05;15.75;;;2.00;1.00;;;;;;5027790;28;20030;-69
2021/03/08 08:33:49;;;;;;;22.00;15.50;;;2.20;1.00;;;;;;5026679;28;20026;-70
2021/03/08 08:36:21;;;;;;;19.80;16.90;;;2.60;1.00;;;;;;5025684;28;20054;-70
2021/03/08 08:39:09;;;;;;;19.50;15.13;;;3.00;1.00;;;;;;5022288;28;20026;-69
2021/03/08 08:41:35;;;;;;;19.10;15.57;;;3.00;99.90;;;;;;5014853;28;20042;-69
2021/03/08 08:44:09;;;;;;;17.77;15.90;;;3.20;99.90;;;;;;5021639;28;20381;-71
2021/03/08 08:46:45;;;;;;;15.98;14.23;;;3.20;99.90;;;;;;5020928;28;20427;-69
2021/03/08 08:49:13;;;;;;;19.58;14.00;;;3.30;99.90;;;;;;5019036;28;20025;-71
2021/03/08 08:51:56;;;;;;;15.63;13.60;;;3.10;99.90;;;;;;5014774;28;20033;-70
2021/03/08 08:54:28;;;;;;;17.42;14.35;;;3.30;99.90;;;;;;5014933;28;20022;-71
2021/03/08 08:56:57;;;;;;;15.82;13.20;;;3.40;99.90;;;;;;5018152;28;20053;-71
2021/03/08 08:59:24;;;;;;;17.23;13.85;;;3.50;99.90;;;;;;5021172;28;20482;-71
2021/03/08 09:01:50;;;;;;;16.15;12.65;;;3.50;99.90;;;;;;5021332;28;20117;-69
2021/03/08 09:04:16;;;;;;;16.65;14.40;;;3.50;99.90;;;;;;5025134;28;20081;-70
2021/03/08 09:06:55;;;;;;;16.02;13.88;;;3.60;99.90;;;;;;5029660;28;20022;-70
2021/03/08 09:09:30;;;;;;;14.55;13.05;;;3.60;99.00;;;;;;5030279;28;20457;-70
2021/03/08 09:12:02;;;;;;;15.85;13.50;;;3.60;99.90;;;;;;5030961;28;20109;-69
2021/03/08 09:14:38;;;;;;;17.08;15.27;;;3.60;98.70;;;;;;5026991;28;20569;-70
2021/03/08 09:17:16;;;;;;;18.90;13.68;;;3.70;99.90;;;;;;5019392;28;20037;-71
2021/03/08 09:19:45;;;;;;;15.38;13.88;;;3.80;42.80;;;;;;5017403;28;20026;-69
2021/03/08 09:22:26;;;;;;;21.85;16.52;;;3.70;1.00;;;;;;5018294;28;20049;-69
2021/03/08 09:24:54;;;;;;;;;;;3.60;99.90;;;;;;5024013;28;20018;-68
2021/03/08 09:27:25;;;;;;;16.13;14.15;;;3.90;53.70;;;;;;5019401;28;19920;-70
2021/03/08 09:29:52;;;;;;;;;;;4.10;1.00;;;;;;5018186;28;20037;-70
2021/03/08 09:32:18;;;;;;;14.65;13.13;;;4.10;1.00;;;;;;5017408;28;19905;-69
2021/03/08 09:34:44;;;;;;;17.58;14.55;;;4.00;99.90;;;;;;5018594;28;20084;-70
2021/03/08 09:37:11;;;;;;;17.95;14.15;;;4.00;1.00;;;;;;5022090;28;20496;-69
2021/03/08 09:39:54;;;;;;;15.73;13.35;;;4.20;99.90;;;;;;5017830;28;20022;-69
2021/03/08 09:42:20;;;;;;;17.38;15.35;;;4.10;1.00;;;;;;5016763;28;20027;-69
2021/03/08 09:44:47;;;;;;;16.05;13.52;;;3.90;19.60;;;;;;5017559;28;20022;-69
2021/03/08 09:47:13;;;;;;;15.20;13.68;;;4.00;1.00;;;;;;5016908;28;20117;-68
2021/03/08 09:49:53;;;;;;;14.55;13.05;;;4.40;14.60;;;;;;5015953;28;20029;-69
2021/03/08 09:52:31;;;;;;;14.98;12.73;;;4.20;99.90;;;;;;5017038;28;20030;-68
2021/03/08 09:54:58;;;;;;;15.57;13.05;;;4.10;99.90;;;;;;5015317;28;20032;-69
2021/03/08 09:57:35;;;;;;;17.30;13.32;;;4.30;99.90;;;;;;5016798;28;20092;-69
2021/03/08 10:00:07;;;;;;;15.57;13.10;;;4.60;1.00;;;;;;5016780;28;20509;-68
2021/03/08 10:02:33;;;;;;;16.30;13.60;;;4.70;99.90;;;;;;5018140;28;20026;-69
2021/03/08 10:05:00;;;;;;;13.60;12.30;;;4.70;99.90;;;;;;5025424;28;20049;-70
2021/03/08 10:07:26;;;;;;;14.77;13.27;;;4.50;99.90;;;;;;5026176;28;20041;-68
2021/03/08 10:10:15;;;;;;;15.80;14.20;;;4.90;26.10;;;;;;5025478;28;20030;-69
2021/03/08 10:12:41;;;;;;;16.08;12.68;;;5.10;99.90;;;;;;5024531;28;20026;-69
2021/03/08 10:15:12;;;;;;;14.98;13.43;;;5.10;94.50;;;;;;5025256;28;20037;-69
2021/03/08 10:17:59;;;;;;;14.65;13.15;;;5.20;99.90;;;;;;5023792;28;20363;-70
2021/03/08 10:20:27;;;;;;;25.38;13.68;;;5.60;1.00;;;;;;5019966;28;20022;-69
2021/03/08 10:22:54;;;;;;;15.18;13.68;;;5.70;56.20;;;;;;5022181;28;20026;-69
2021/03/08 10:25:27;;;;;;;16.65;14.05;;;5.60;99.90;;;;;;5016354;28;20129;-69
2021/03/08 10:28:04;;;;;;;14.13;12.73;;;5.10;95.60;;;;;;5016714;28;20434;-68
2021/03/08 10:30:31;;;;;;;14.07;12.45;;;5.30;99.90;;;;;;5020016;28;20033;-69
2021/03/08 10:33:16;;;;;;;14.27;12.77;;;5.10;99.90;;;;;;5022732;28;20018;-69
2021/03/08 10:35:55;;;;;;;12.90;11.70;;;5.60;99.90;;;;;;5021778;28;20036;-69
2021/03/08 10:38:31;;;;;;;13.40;12.05;;;5.70;99.90;;;;;;5019271;28;20026;-69
2021/03/08 10:41:03;;;;;;;13.98;11.75;;;6.10;1.00;;;;;;5016740;28;20053;-69
2021/03/08 10:43:30;;;;;;;16.85;11.55;;;6.20;99.90;;;;;;5020452;28;20489;-69
2021/03/08 10:45:58;;;;;;;15.07;11.18;;;6.30;91.60;;;;;;5021716;28;20021;-68
2021/03/08 10:48:27;;;;;;;12.93;11.52;;;5.90;99.90;;;;;;5016694;28;20032;-68
2021/03/08 10:50:57;;;;;;;12.43;11.13;;;5.80;99.90;;;;;;5023514;28;20034;-69
2021/03/08 10:53:24;;;;;;;13.63;10.85;;;6.00;1.00;;;;;;5025321;28;20445;-68
2021/03/08 10:55:51;;;;;;;14.23;11.52;;;6.40;1.00;;;;;;5026325;28;20401;-70
2021/03/08 10:58:32;;;;;;;13.05;11.68;;;6.40;99.90;;;;;;5016777;28;20147;-68
2021/03/08 11:01:07;;;;;;;10.63;9.55;;;6.30;1.00;;;;;;5019672;28;20030;-68
2021/03/08 11:03:36;;;;;;;11.57;10.18;;;6.70;99.90;;;;;;5007415;28;20030;-68
2021/03/08 11:06:13;;;;;;;10.80;9.63;;;6.90;32.60;;;;;;5018997;28;20026;-69
2021/03/08 11:08:40;;;;;;;12.73;10.68;;;7.10;99.90;;;;;;5025184;28;20018;-69
2021/03/08 11:11:16;;;;;;;10.30;9.20;;;7.30;99.90;;;;;;5018749;28;20026;-69
2021/03/08 11:13:41;;;;;;;10.07;9.07;;;7.30;99.90;;;;;;5026671;28;20030;-69
2021/03/08 11:16:08;;;;;;;10.90;9.75;;;7.30;1.00;;;;;;5027836;28;20022;-70
2021/03/08 11:18:34;;;;;;;12.00;9.35;;;7.30;1.00;;;;;;5021471;28;20045;-69
2021/03/08 11:21:24;;;;;;;11.15;9.80;;;7.20;1.00;;;;;;5015864;28;20022;-69
2021/03/08 11:23:51;;;;;;;10.35;9.43;;;7.00;99.90;;;;;;5019409;28;20022;-70
2021/03/08 11:26:16;;;;;;;10.73;9.65;;;7.10;99.90;;;;;;5016143;28;20532;-70
2021/03/08 11:28:43;;;;;;;13.07;10.88;;;7.10;99.90;;;;;;5016532;28;20057;-69
2021/03/08 11:31:25;;;;;;;10.48;9.07;;;7.00;99.90;;;;;;5015258;28;20086;-68
2021/03/08 11:33:54;;;;;;;11.30;9.98;;;7.10;99.90;;;;;;5015534;28;20062;-69
2021/03/08 11:36:33;;;;;;;10.48;9.35;;;7.00;99.90;;;;;;5015935;28;20083;-69
2021/03/08 11:39:03;;;;;;;10.98;9.07;;;6.70;92.80;;;;;;5015683;28;20058;-71
2021/03/08 11:41:29;;;;;;;14.98;9.65;;;6.80;1.00;;;;;;5015486;28;20022;-70
2021/03/08 11:43:55;;;;;;;10.20;9.07;;;7.00;1.00;;;;;;5015638;28;20026;-69
2021/03/08 11:46:20;;;;;;;9.90;8.95;;;7.40;99.90;;;;;;5015877;28;20060;-69
2021/03/08 11:48:46;;;;;;;9.35;8.27;;;7.30;99.90;;;;;;5024354;28;20050;-68
2021/03/08 11:51:12;;;;;;;10.82;9.25;;;7.20;99.90;;;;;;5026940;28;20033;-70
2021/03/08 11:53:37;;;;;;;10.80;9.75;;;7.10;99.90;;;;;;5026009;28;20109;-71
2021/03/08 11:56:03;;;;;;;8.77;7.97;;;7.00;99.90;;;;;;5022016;28;20037;-69
2021/03/08 11:58:29;;;;;;;9.70;8.80;;;6.70;94.10;;;;;;5017811;28;20029;-69
2021/03/08 12:00:58;;;;;;;10.60;8.43;;;6.80;99.90;;;;;;5022974;28;20038;-69
2021/03/08 12:03:24;;;;;;;9.23;7.68;;;7.30;39.40;;;;;;5019430;28;20022;-70
2021/03/08 12:05:49;;;;;;;13.40;9.00;;;7.40;4.80;;;;;;5022648;28;20129;-70
2021/03/08 12:08:15;;;;;;;11.68;8.43;;;7.50;1.00;;;;;;5025254;28;20508;-70
2021/03/08 12:10:40;;;;;;;9.45;7.80;;;7.70;99.90;;;;;;5020081;28;20064;-69
2021/03/08 12:13:06;;;;;;;10.02;8.88;;;7.50;99.90;;;;;;5022089;28;20061;-72
2021/03/08 12:15:32;;;;;;;10.15;9.10;;;7.30;99.90;;;;;;5020376;28;20038;-69
2021/03/08 12:17:57;;;;;;;12.13;9.70;;;7.30;99.90;;;;;;5019703;28;20033;-70
2021/03/08 12:20:23;;;;;;;10.68;9.68;;;7.70;1.00;;;;;;5015620;28;20513;-69
2021/03/08 12:22:48;;;;;;;15.52;8.93;;;7.50;1.00;;;;;;5015524;28;20128;-70
2021/03/08 12:25:15;;;;;;;12.70;10.43;;;7.80;1.00;;;;;;5015513;28;20018;-70
2021/03/08 12:27:40;;;;;;;14.15;10.50;;;7.90;1.00;;;;;;5017470;28;20037;-70
2021/03/08 12:30:07;;;;;;;12.60;9.20;;;7.70;1.00;;;;;;5015773;28;20030;-69
2021/03/08 12:32:32;;;;;;;9.95;8.95;;;7.70;1.00;;;;;;5020398;28;20105;-69
2021/03/08 12:34:58;;;;;;;11.43;9.57;;;7.70;99.90;;;;;;5022831;28;20058;-70
2021/03/08 12:37:24;;;;;;;11.35;9.48;;;7.70;99.90;;;;;;5020029;28;20049;-70
2021/03/08 12:39:49;;;;;;;10.00;8.80;;;7.40;99.90;;;;;;5018359;28;20037;-70
2021/03/08 12:42:15;;;;;;;15.30;9.88;;;7.60;99.90;;;;;;5018717;28;20117;-70
2021/03/08 12:44:40;;;;;;;10.73;9.15;;;7.50;99.90;;;;;;5019561;28;20379;-69
2021/03/08 12:47:06;;;;;;;11.35;8.77;;;7.60;99.90;;;;;;5016585;28;20045;-70
2021/03/08 12:49:32;;;;;;;10.50;9.50;;;7.50;99.90;;;;;;5016225;28;20025;-69
2021/03/08 12:51:57;;;;;;;9.88;8.82;;;7.40;99.90;;;;;;5018037;28;20048;-70